createdAt,value
2023-04-01T00:01:05.763Z,97548.50
2023-04-01T00:03:33.763Z,97564.13
2023-04-01T00:06:01.630Z,97561.22
2023-04-01T00:08:28.725Z,97558.31
2023-04-01T00:10:57.892Z,97550.78
2023-04-01T00:13:25.504Z,97548.28
2023-04-01T00:15:52.245Z,97562.38
2023-04-01T00:18:19.441Z,97560.38
2023-04-01T00:20:50.827Z,97550.47
2023-04-01T00:23:21.509Z,97562.13
2023-04-01T00:25:52.939Z,97557.56
2023-04-01T00:28:21.496Z,97556.38
2023-04-01T00:30:57.154Z,97546.59
2023-04-01T00:33:26.883Z,97545.28
2023-04-01T00:35:53.461Z,97550.41
2023-04-01T00:38:20.075Z,97549.94
2023-04-01T00:40:47.470Z,97546.03
2023-04-01T00:43:19.092Z,97548.25
2023-04-01T00:45:49.648Z,97539.72
2023-04-01T00:48:18.659Z,97550.03
2023-04-01T00:50:50.730Z,97536.34
2023-04-01T00:53:20.315Z,97540.25
2023-04-01T00:55:54.507Z,97538.25
2023-04-01T00:58:24.674Z,97539.19
2023-04-01T01:00:53.234Z,97539.31
2023-04-01T01:03:21.872Z,97533.78
2023-04-01T01:06:03.804Z,97543.47
2023-04-01T01:08:45.815Z,97540.25
2023-04-01T01:11:23.562Z,97527.88
2023-04-01T01:13:59.855Z,97528.50
2023-04-01T01:16:31.613Z,97519.25
2023-04-01T01:19:09.122Z,97519.66
2023-04-01T01:21:57.231Z,97531.09
2023-04-01T01:24:54.751Z,97517.47
2023-04-01T01:27:22.240Z,97525.56
2023-04-01T01:30:15.103Z,97528.56
2023-04-01T01:33:02.408Z,97524.75
2023-04-01T01:35:40.935Z,97536.34
2023-04-01T01:38:12.224Z,97537.13
2023-04-01T01:40:42.651Z,97526.38
2023-04-01T01:43:17.355Z,97530.81
2023-04-01T01:45:49.176Z,97543.44
2023-04-01T01:48:18.418Z,97531.66
2023-04-01T01:50:49.678Z,97529.66
2023-04-01T01:53:16.415Z,97528.44
2023-04-01T01:55:45.438Z,97527.88
2023-04-01T01:58:17.221Z,97533.28
2023-04-01T02:00:51.261Z,97532.19
2023-04-01T02:03:20.026Z,97542.03
2023-04-01T02:05:50.772Z,97527.59
2023-04-01T02:08:21.609Z,97536.34
2023-04-01T02:10:56.962Z,97529.53
2023-04-01T02:13:30.769Z,97531.13
2023-04-01T02:16:02.944Z,97522.59
2023-04-01T02:18:30.979Z,97531.78
2023-04-01T02:21:00.859Z,97531.66
2023-04-01T02:23:29.608Z,97535.13
2023-04-01T02:25:56.634Z,97531.16
2023-04-01T02:28:25.178Z,97533.06
2023-04-01T02:30:52.768Z,97524.09
2023-04-01T02:33:20.784Z,97532.09
2023-04-01T02:35:50.357Z,97534.88
2023-04-01T02:38:18.691Z,97529.47
2023-04-01T02:40:48.412Z,97534.75
2023-04-01T02:43:15.220Z,97537.72
2023-04-01T02:45:41.795Z,97534.44
2023-04-01T02:48:08.532Z,97533.59
2023-04-01T02:50:35.121Z,97536.06
2023-04-01T02:53:02.649Z,97537.50
2023-04-01T02:55:30.922Z,97533.72
2023-04-01T02:57:57.737Z,97543.88
2023-04-01T03:00:24.819Z,97539.50
2023-04-01T03:02:51.516Z,97539.31
2023-04-01T03:05:18.069Z,97535.78
2023-04-01T03:07:44.743Z,97540.00
2023-04-01T03:10:11.631Z,97544.75
2023-04-01T03:12:39.685Z,97542.19
2023-04-01T03:15:11.268Z,97552.97
2023-04-01T03:17:38.544Z,97552.03
2023-04-01T03:20:06.122Z,97548.28
2023-04-01T03:22:32.924Z,97556.88
2023-04-01T03:24:59.425Z,97557.00
2023-04-01T03:27:26.039Z,97550.34
2023-04-01T03:29:53.984Z,97553.84
2023-04-01T03:32:20.831Z,97550.19
2023-04-01T03:34:47.786Z,97559.50
2023-04-01T03:37:14.439Z,97562.69
2023-04-01T03:39:42.504Z,97562.59
2023-04-01T03:42:10.053Z,97559.44
2023-04-01T03:44:36.632Z,97569.56
2023-04-01T03:47:04.697Z,97564.66
2023-04-01T03:49:31.239Z,97567.91
2023-04-01T03:51:57.761Z,97560.28
2023-04-01T03:54:24.432Z,97569.72
2023-04-01T03:56:51.039Z,97569.00
2023-04-01T03:59:20.522Z,97568.69
2023-04-01T04:01:47.573Z,97565.69
2023-04-01T04:04:15.679Z,97562.84
2023-04-01T04:06:42.688Z,97573.03
2023-04-01T04:09:09.279Z,97570.59
2023-04-01T04:11:35.885Z,97570.03
2023-04-01T04:14:02.652Z,97572.72
2023-04-01T04:16:29.426Z,97574.44
2023-04-01T04:18:56.161Z,97577.78
2023-04-01T04:21:24.320Z,97578.41
2023-04-01T04:23:50.884Z,97584.91
2023-04-01T04:26:17.494Z,97576.72
2023-04-01T04:28:44.096Z,97573.81
2023-04-01T04:31:10.803Z,97583.25
2023-04-01T04:33:37.705Z,97581.72
2023-04-01T04:36:05.440Z,97578.75
2023-04-01T04:38:33.503Z,97570.00
2023-04-01T04:41:00.156Z,97579.66
2023-04-01T04:43:26.823Z,97577.84
2023-04-01T04:45:53.486Z,97578.81
2023-04-01T04:48:20.297Z,97587.34
2023-04-01T04:50:48.005Z,97577.00
2023-04-01T04:53:15.570Z,97595.84
2023-04-01T04:55:45.688Z,97588.47
2023-04-01T04:58:12.496Z,97588.25
2023-04-01T05:00:39.665Z,97577.06
2023-04-01T05:03:06.621Z,97594.91
2023-04-01T05:05:33.722Z,97592.81
2023-04-01T05:08:00.837Z,97597.06
2023-04-01T05:10:27.403Z,97596.91
2023-04-01T05:12:55.512Z,97591.31
2023-04-01T05:15:22.282Z,97593.72
2023-04-01T05:17:48.879Z,97600.13
2023-04-01T05:20:16.392Z,97602.53
2023-04-01T05:22:43.186Z,97585.78
2023-04-01T05:25:10.446Z,97600.16
2023-04-01T05:27:37.101Z,97600.34
2023-04-01T05:30:06.858Z,97607.97
2023-04-01T05:32:33.637Z,97611.97
2023-04-01T05:35:00.354Z,97619.94
2023-04-01T05:37:26.932Z,97612.13
2023-04-01T05:39:53.644Z,97617.06
2023-04-01T05:42:20.220Z,97623.16
2023-04-01T05:44:46.778Z,97622.66
2023-04-01T05:47:14.745Z,97615.13
2023-04-01T05:49:41.450Z,97623.56
2023-04-01T05:52:08.745Z,97615.44
2023-04-01T05:54:35.756Z,97625.56
2023-04-01T05:57:02.668Z,97627.84
2023-04-01T05:59:29.404Z,97634.13
2023-04-01T06:01:57.353Z,97625.44
2023-04-01T06:04:29.495Z,97635.28
2023-04-01T06:06:56.132Z,97634.56
2023-04-01T06:09:27.624Z,97633.22
2023-04-01T06:12:13.889Z,97637.38
2023-04-01T06:14:52.260Z,97629.06
2023-04-01T06:17:31.466Z,97637.63
2023-04-01T06:20:07.564Z,97634.97
2023-04-01T06:22:50.507Z,97639.84
2023-04-01T06:25:52.744Z,97648.78
2023-04-01T06:28:50.848Z,97633.09
2023-04-01T06:31:33.785Z,97649.19
2023-04-01T06:34:15.530Z,97646.97
2023-04-01T06:37:02.003Z,97652.75
2023-04-01T06:39:41.299Z,97654.03
2023-04-01T06:42:23.544Z,97647.03
2023-04-01T06:45:04.356Z,97652.75
2023-04-01T06:47:45.671Z,97654.25
2023-04-01T06:50:23.456Z,97658.97
2023-04-01T06:52:59.836Z,97651.78
2023-04-01T06:55:31.458Z,97661.72
2023-04-01T06:58:00.777Z,97664.44
2023-04-01T07:00:31.700Z,97649.25
2023-04-01T07:03:07.520Z,97658.63
2023-04-01T07:05:35.339Z,97661.97
2023-04-01T07:08:06.893Z,97666.31
2023-04-01T07:10:41.563Z,97668.91
2023-04-01T07:13:17.017Z,97665.19
2023-04-01T07:15:47.798Z,97666.19
2023-04-01T07:18:19.092Z,97662.50
2023-04-01T07:20:47.488Z,97678.56
2023-04-01T07:23:21.949Z,97671.88
2023-04-01T07:25:53.635Z,97674.88
2023-04-01T07:28:20.212Z,97681.66
2023-04-01T07:30:59.187Z,97680.38
2023-04-01T07:33:34.286Z,97690.13
2023-04-01T07:36:09.259Z,97695.94
2023-04-01T07:38:50.134Z,97694.59
2023-04-01T07:41:27.773Z,97695.94
2023-04-01T07:44:03.456Z,97691.03
2023-04-01T07:46:51.148Z,97704.22
2023-04-01T07:49:26.633Z,97705.13
2023-04-01T07:52:01.456Z,97706.00
2023-04-01T07:54:34.924Z,97712.22
2023-04-01T07:57:07.693Z,97706.13
2023-04-01T07:59:43.837Z,97705.44
2023-04-01T08:02:23.154Z,97721.72
2023-04-01T08:04:59.683Z,97723.22
2023-04-01T08:07:29.556Z,97719.53
2023-04-01T08:10:05.774Z,97729.44
2023-04-01T08:12:45.993Z,97727.56
2023-04-01T08:15:21.332Z,97734.09
2023-04-01T08:17:57.904Z,97734.72
2023-04-01T08:20:33.328Z,97725.50
2023-04-01T08:23:04.573Z,97736.88
2023-04-01T08:25:35.264Z,97740.22
2023-04-01T08:28:13.616Z,97756.81
2023-04-01T08:30:44.714Z,97753.25
2023-04-01T08:33:17.146Z,97761.75
2023-04-01T08:35:51.072Z,97753.59
2023-04-01T08:38:22.513Z,97757.84
2023-04-01T08:41:30.922Z,97762.34
2023-04-01T08:44:15.320Z,97759.38
2023-04-01T08:47:04.025Z,97756.66
2023-04-01T08:49:56.065Z,97767.38
2023-04-01T08:52:36.584Z,97767.13
2023-04-01T08:55:26.115Z,97777.00
2023-04-01T08:58:20.369Z,97780.81
2023-04-01T09:00:54.460Z,97774.47
2023-04-01T09:03:44.009Z,97786.75
2023-04-01T09:06:30.137Z,97777.06
2023-04-01T09:09:26.799Z,97785.28
2023-04-01T09:12:14.461Z,97792.25
2023-04-01T09:15:00.119Z,97798.22
2023-04-01T09:17:59.651Z,97810.34
2023-04-01T09:20:51.908Z,97804.66
2023-04-01T09:23:55.232Z,97806.31
2023-04-01T09:26:36.059Z,97819.88
2023-04-01T09:29:13.216Z,97826.56
2023-04-01T09:32:09.143Z,97824.81
2023-04-01T09:34:54.288Z,97817.06
2023-04-01T09:37:22.622Z,97824.81
2023-04-01T09:40:11.899Z,97825.25
2023-04-01T09:43:03.432Z,97828.41
2023-04-01T09:45:47.241Z,97826.88
2023-04-01T09:48:25.867Z,97832.84
2023-04-01T09:54:48.515Z,97823.53
2023-04-01T09:57:50.251Z,97830.09
2023-04-01T10:04:26.029Z,97849.31
2023-04-01T10:07:30.205Z,97851.19
2023-04-01T10:10:26.185Z,97844.50
2023-04-01T10:13:30.208Z,97841.25
2023-04-01T10:19:24.330Z,97863.81
2023-04-01T10:22:36.470Z,97863.31
2023-04-01T10:25:35.576Z,97867.94
2023-04-01T10:28:38.027Z,97870.50
2023-04-01T10:31:26.855Z,97873.06
2023-04-01T10:34:20.326Z,97872.38
2023-04-01T10:36:54.313Z,97875.63
2023-04-01T10:40:08.289Z,97880.94
2023-04-01T10:43:07.009Z,97884.53
2023-04-01T10:46:12.831Z,97874.44
2023-04-01T10:49:27.999Z,97890.69
2023-04-01T10:52:32.665Z,97884.28
2023-04-01T10:55:20.336Z,97892.63
2023-04-01T10:58:21.272Z,97889.66
2023-04-01T11:01:28.994Z,97887.06
2023-04-01T11:04:32.866Z,97893.22
2023-04-01T11:07:33.991Z,97892.16
2023-04-01T11:10:35.718Z,97903.94
2023-04-01T11:13:37.125Z,97905.25
2023-04-01T11:16:39.397Z,97907.28
2023-04-01T11:19:33.494Z,97905.94
2023-04-01T11:22:25.623Z,97915.03
2023-04-01T11:25:22.706Z,97915.22
2023-04-01T11:28:06.454Z,97908.72
2023-04-01T11:30:50.222Z,97917.69
2023-04-01T11:33:24.232Z,97916.00
2023-04-01T11:36:03.367Z,97919.78
2023-04-01T11:39:12.245Z,97918.91
2023-04-01T11:41:47.117Z,97932.44
2023-04-01T11:44:20.201Z,97928.31
2023-04-01T11:47:12.013Z,97937.00
2023-04-01T11:49:50.747Z,97928.50
2023-04-01T11:52:27.709Z,97935.16
2023-04-01T11:55:16.933Z,97941.31
2023-04-01T11:58:17.661Z,97945.94
2023-04-01T12:01:07.291Z,97937.22
2023-04-01T12:04:06.603Z,97942.16
2023-04-01T12:07:05.443Z,97934.78
2023-04-01T12:09:55.136Z,97959.06
2023-04-01T12:12:31.771Z,97971.41
2023-04-01T12:15:15.783Z,97974.03
2023-04-01T12:17:51.573Z,97971.25
2023-04-01T12:20:35.560Z,97963.44
2023-04-01T12:28:16.941Z,97954.91
2023-04-01T12:45:03.108Z,98007.19
2023-04-01T12:47:54.599Z,98006.00
2023-04-01T12:50:42.956Z,97990.03
2023-04-01T12:53:47.534Z,98000.81
2023-04-01T12:56:25.271Z,98014.66
2023-04-01T12:59:22.651Z,98025.09
2023-04-01T13:02:02.403Z,98026.47
2023-04-01T13:04:45.813Z,98024.09
2023-04-01T13:07:59.770Z,98027.81
2023-04-01T13:10:40.882Z,98023.69
2023-04-01T13:13:29.725Z,98019.75
2023-04-01T13:16:06.574Z,98039.44
2023-04-01T13:18:47.348Z,98044.03
2023-04-01T13:21:39.718Z,98039.97
2023-04-01T13:24:37.690Z,98020.91
2023-04-01T13:33:31.643Z,98047.22
2023-04-01T13:36:09.134Z,98055.38
2023-04-01T13:39:00.038Z,98033.81
2023-04-01T13:41:39.931Z,98055.56
2023-04-01T13:47:52.696Z,98074.69
2023-04-01T13:50:43.299Z,98062.94
2023-04-01T13:53:48.621Z,98059.34
2023-04-01T13:56:29.744Z,98070.53
2023-04-01T13:59:20.742Z,98070.94
2023-04-01T14:01:54.635Z,98079.66
2023-04-01T14:04:49.246Z,98082.31
2023-04-01T14:07:42.443Z,98079.19
2023-04-01T14:10:19.643Z,98080.31
2023-04-01T14:12:52.532Z,98090.72
2023-04-01T14:15:34.960Z,98094.34
2023-04-01T14:18:17.285Z,98098.25
2023-04-01T14:20:52.686Z,98093.13
2023-04-01T14:23:52.067Z,98098.19
2023-04-01T14:26:40.151Z,98098.00
2023-04-01T14:29:19.711Z,98102.25
2023-04-01T14:32:07.497Z,98106.16
2023-04-01T14:34:57.866Z,98104.72
2023-04-01T14:37:42.495Z,98113.69
2023-04-01T14:40:27.677Z,98116.38
2023-04-01T14:43:09.979Z,98113.22
2023-04-01T14:45:52.022Z,98119.97
2023-04-01T14:48:28.457Z,98111.13
2023-04-01T14:50:58.773Z,98108.22
2023-04-01T14:53:30.861Z,98127.69
2023-04-01T14:55:59.717Z,98121.25
2023-04-01T14:58:44.096Z,98121.06
2023-04-01T15:01:33.415Z,98122.31
2023-04-01T15:04:16.697Z,98129.22
2023-04-01T15:07:06.422Z,98133.91
2023-04-01T15:09:40.725Z,98133.72
2023-04-01T15:12:19.534Z,98146.09
2023-04-01T15:14:58.965Z,98145.75
2023-04-01T15:17:44.298Z,98148.16
2023-04-01T15:20:32.448Z,98140.28
2023-04-01T15:23:11.097Z,98152.00
2023-04-01T15:25:50.910Z,98156.38
2023-04-01T15:28:29.229Z,98163.66
2023-04-01T15:31:02.861Z,98166.78
2023-04-01T15:33:49.429Z,98162.53
2023-04-01T15:36:27.854Z,98167.69
2023-04-01T15:39:02.408Z,98170.34
2023-04-01T15:41:40.212Z,98176.47
2023-04-01T15:44:39.169Z,98176.72
2023-04-01T15:47:20.623Z,98188.97
2023-04-01T15:49:56.707Z,98184.88
2023-04-01T15:52:25.504Z,98188.84
2023-04-01T15:55:18.519Z,98185.69
2023-04-01T15:58:03.413Z,98193.81
2023-04-01T16:00:31.364Z,98192.41
2023-04-01T16:03:18.504Z,98193.84
2023-04-01T16:06:00.286Z,98200.38
2023-04-01T16:08:59.393Z,98202.69
2023-04-01T16:11:38.728Z,98208.19
2023-04-01T16:14:17.788Z,98209.69
2023-04-01T16:17:00.509Z,98199.28
2023-04-01T16:19:37.182Z,98215.69
2023-04-01T16:22:09.501Z,98221.59
2023-04-01T16:24:42.066Z,98216.94
2023-04-01T16:27:14.095Z,98222.22
2023-04-01T16:29:49.809Z,98213.88
2023-04-01T16:32:30.153Z,98232.41
2023-04-01T16:35:06.857Z,98229.56
2023-04-01T16:37:40.082Z,98241.97
2023-04-01T16:40:21.680Z,98231.44
2023-04-01T16:42:52.507Z,98233.00
2023-04-01T16:45:39.387Z,98243.63
2023-04-01T16:48:12.809Z,98244.34
2023-04-01T16:50:49.673Z,98246.81
2023-04-01T16:53:20.587Z,98255.00
2023-04-01T16:55:51.442Z,98258.16
2023-04-01T16:58:24.032Z,98261.88
2023-04-01T17:00:56.354Z,98262.72
2023-04-01T17:03:28.416Z,98263.81
2023-04-01T17:06:19.634Z,98276.75
2023-04-01T17:09:00.296Z,98274.03
2023-04-01T17:11:32.911Z,98280.59
2023-04-01T17:14:08.638Z,98289.28
2023-04-01T17:17:02.456Z,98298.56
2023-04-01T17:19:57.723Z,98289.53
2023-04-01T17:22:35.557Z,98286.47
2023-04-01T17:25:29.361Z,98309.81
2023-04-01T17:28:00.660Z,98314.75
2023-04-01T17:30:36.785Z,98303.59
2023-04-01T17:33:20.686Z,98313.19
2023-04-01T17:35:57.564Z,98320.63
2023-04-01T17:38:40.595Z,98328.53
2023-04-01T17:41:12.367Z,98323.81
2023-04-01T17:43:49.268Z,98334.34
2023-04-01T17:46:31.706Z,98328.50
2023-04-01T17:49:11.712Z,98337.44
2023-04-01T17:51:44.409Z,98345.00
2023-04-01T17:54:25.495Z,98345.72
2023-04-01T17:57:09.502Z,98346.38
2023-04-01T17:59:38.400Z,98353.91
2023-04-01T18:02:17.785Z,98346.16
2023-04-01T18:05:03.358Z,98360.69
2023-04-01T18:07:58.909Z,98370.16
2023-04-01T18:10:32.325Z,98363.69
2023-04-01T18:13:30.344Z,98373.75
2023-04-01T18:16:12.409Z,98380.91
2023-04-01T18:18:49.013Z,98380.91
2023-04-01T18:21:24.951Z,98394.16
2023-04-01T18:24:02.125Z,98391.72
2023-04-01T18:26:32.074Z,98393.91
2023-04-01T18:29:05.104Z,98404.44
2023-04-01T18:31:38.413Z,98394.97
2023-04-01T18:34:13.898Z,98404.41
2023-04-01T18:36:49.413Z,98415.31
2023-04-01T18:39:19.722Z,98411.56
2023-04-01T18:42:08.314Z,98428.38
2023-04-01T18:44:46.740Z,98421.03
2023-04-01T18:47:25.897Z,98432.25
2023-04-01T18:49:56.882Z,98429.53
2023-04-01T18:52:29.445Z,98429.81
2023-04-01T18:55:29.377Z,98440.47
2023-04-01T18:58:08.144Z,98440.31
2023-04-01T19:00:39.684Z,98437.59
2023-04-01T19:03:16.930Z,98446.75
2023-04-01T19:05:46.586Z,98448.75
2023-04-01T19:08:20.406Z,98446.16
2023-04-01T19:10:54.108Z,98448.94
2023-04-01T19:13:28.380Z,98449.25
2023-04-01T19:16:03.764Z,98452.53
2023-04-01T19:18:50.983Z,98463.16
2023-04-01T19:21:22.326Z,98463.16
2023-04-01T19:24:14.705Z,98468.75
2023-04-01T19:26:46.698Z,98472.78
2023-04-01T19:29:25.864Z,98476.09
2023-04-01T19:32:02.736Z,98481.84
2023-04-01T19:34:41.574Z,98473.06
2023-04-01T19:37:21.206Z,98466.16
2023-04-01T19:40:01.291Z,98470.34
2023-04-01T19:42:36.532Z,98465.59
2023-04-01T19:45:18.043Z,98472.34
2023-04-01T19:47:57.552Z,98478.09
2023-04-01T19:50:31.984Z,98476.09
2023-04-01T19:53:05.472Z,98486.28
2023-04-01T19:55:43.408Z,98491.03
2023-04-01T19:58:19.119Z,98498.34
2023-04-01T20:00:50.142Z,98500.06
2023-04-01T20:03:26.340Z,98506.41
2023-04-01T20:06:02.741Z,98497.78
2023-04-01T20:08:37.638Z,98511.16
2023-04-01T20:11:27.710Z,98512.31
2023-04-01T20:14:06.652Z,98521.91
2023-04-01T20:16:54.082Z,98518.31
2023-04-01T20:19:38.795Z,98531.38
2023-04-01T20:22:17.027Z,98524.78
2023-04-01T20:24:47.487Z,98530.13
2023-04-01T20:27:22.511Z,98533.16
2023-04-01T20:30:05.748Z,98538.28
2023-04-01T20:32:58.093Z,98544.63
2023-04-01T20:35:36.596Z,98556.00
2023-04-01T20:38:24.373Z,98557.13
2023-04-01T20:40:53.874Z,98559.13
2023-04-01T20:43:43.940Z,98551.13
2023-04-01T20:46:20.018Z,98567.47
2023-04-01T20:49:07.194Z,98570.34
2023-04-01T20:51:38.574Z,98569.06
2023-04-01T20:54:19.613Z,98572.66
2023-04-01T20:57:01.555Z,98582.91
2023-04-01T20:59:57.355Z,98588.41
2023-04-01T21:02:42.536Z,98588.16
2023-04-01T21:05:37.328Z,98593.81
2023-04-01T21:08:12.351Z,98589.47
2023-04-01T21:10:43.909Z,98608.34
2023-04-01T21:13:28.561Z,98610.88
2023-04-01T21:16:12.102Z,98606.03
2023-04-01T21:19:01.265Z,98630.00
2023-04-01T21:21:45.302Z,98629.28
2023-04-01T21:24:45.903Z,98645.25
2023-04-01T21:27:21.725Z,98638.66
2023-04-01T21:29:58.442Z,98637.31
2023-04-01T21:32:50.266Z,98653.00
2023-04-01T21:35:32.134Z,98656.19
2023-04-01T21:38:08.648Z,98666.78
2023-04-01T21:40:57.419Z,98662.84
2023-04-01T21:43:45.644Z,98662.97
2023-04-01T21:46:47.541Z,98669.97
2023-04-01T21:49:37.036Z,98679.84
2023-04-01T21:52:39.195Z,98683.78
2023-04-01T21:55:43.466Z,98688.75
2023-04-01T21:58:42.627Z,98688.72
2023-04-01T22:01:25.428Z,98698.41
2023-04-01T22:04:19.853Z,98696.28
2023-04-01T22:06:52.790Z,98687.88
2023-04-01T22:09:24.679Z,98705.78
2023-04-01T22:12:00.585Z,98716.50
2023-04-01T22:14:34.048Z,98711.53
2023-04-01T22:17:06.441Z,98723.03
2023-04-01T22:19:42.629Z,98737.56
2023-04-01T22:22:18.019Z,98736.91
2023-04-01T22:24:56.274Z,98738.63
2023-04-01T22:27:31.758Z,98748.31
2023-04-01T22:30:14.793Z,98729.22
2023-04-01T22:32:44.968Z,98746.84
2023-04-01T22:35:30.414Z,98748.50
2023-04-01T22:38:10.637Z,98746.47
2023-04-01T22:40:45.654Z,98770.69
2023-04-01T22:43:17.048Z,98784.84
2023-04-01T22:46:17.107Z,98767.72
2023-04-01T22:48:45.978Z,98798.72
2023-04-01T22:51:18.740Z,98798.84
2023-04-01T22:53:58.429Z,98794.59
2023-04-01T22:56:29.979Z,98796.38
2023-04-01T22:59:05.554Z,98804.56
2023-04-01T23:01:39.856Z,98814.22
2023-04-01T23:04:06.599Z,98801.56
2023-04-01T23:06:39.252Z,98830.28
2023-04-01T23:09:14.301Z,98831.16
2023-04-01T23:11:47.396Z,98823.81
2023-04-01T23:14:44.562Z,98827.72
2023-04-01T23:17:24.371Z,98828.44
2023-04-01T23:19:56.619Z,98847.75
2023-04-01T23:22:31.454Z,98866.94
2023-04-01T23:25:13.472Z,98862.06
2023-04-01T23:27:46.416Z,98866.59
2023-04-01T23:30:50.455Z,98878.63
2023-04-01T23:33:24.198Z,98874.84
2023-04-01T23:35:53.333Z,98882.53
2023-04-01T23:38:22.291Z,98889.25
2023-04-01T23:40:53.150Z,98880.06
2023-04-01T23:43:25.911Z,98899.28
2023-04-01T23:45:53.448Z,98905.09
2023-04-01T23:48:23.526Z,98911.59
2023-04-01T23:50:50.161Z,98912.34
2023-04-01T23:53:19.838Z,98931.94
2023-04-01T23:55:47.559Z,98924.88
2023-04-01T23:58:22.162Z,98931.53
